Time;durP1;ratioP1;P1;durP2;ratioP2;P2;SDS_P1;SDS_P2;PMS_P1;PMS_P2;Temp;Humidity;BMP_temperature;BMP_pressure;BME280_temperature;BME280_humidity;BME280_pressure;Samples;Min_cycle;Max_cycle;Signal;HPM_P1;HPM_P2
2023/05/08 00:00:21;;;;;;;20.05;12.30;;;12.00;99.90;;;;;;5034822;28;20045;-85
2023/05/08 00:03:11;;;;;;;17.45;11.55;;;11.90;99.90;;;;;;5048410;23;20048;-85
2023/05/08 00:05:37;;;;;;;17.70;11.45;;;11.90;99.90;;;;;;5036831;28;20052;-85
2023/05/08 00:08:21;;;;;;;19.25;12.52;;;11.70;99.90;;;;;;5036581;28;20682;-84
2023/05/08 00:10:46;;;;;;;;;;;13.10;99.90;;;;;;5037110;28;20052;-85
2023/05/08 00:13:12;;;;;;;18.67;11.73;;;11.90;99.90;;;;;;5036918;28;20019;-85
2023/05/08 00:15:50;;;;;;;17.58;11.80;;;12.60;99.90;;;;;;5036397;28;20048;-85
2023/05/08 00:18:16;;;;;;;19.05;12.30;;;12.50;99.90;;;;;;5054537;28;20128;-85
2023/05/08 00:20:44;;;;;;;18.83;12.25;;;12.90;99.90;;;;;;5054644;28;20120;-85
2023/05/08 00:23:13;;;;;;;18.83;12.05;;;11.70;99.90;;;;;;5035359;28;20477;-85
2023/05/08 00:25:56;;;;;;;17.20;11.63;;;12.40;99.90;;;;;;5036250;28;20076;-85
2023/05/08 00:28:25;;;;;;;19.65;12.13;;;11.90;99.90;;;;;;5054103;28;20578;-85
2023/05/08 00:30:51;;;;;;;17.77;11.52;;;12.20;99.90;;;;;;5035574;28;20132;-85
2023/05/08 00:33:24;;;;;;;19.33;12.40;;;12.90;99.90;;;;;;5035992;28;20037;-85
2023/05/08 00:35:50;;;;;;;17.85;11.50;;;12.80;99.90;;;;;;5054501;28;20102;-85
2023/05/08 00:38:15;;;;;;;19.08;12.30;;;12.80;99.90;;;;;;5053263;28;20392;-85
2023/05/08 00:40:52;;;;;;;18.08;11.98;;;11.90;99.90;;;;;;5054425;28;20444;-85
2023/05/08 00:43:18;;;;;;;18.98;11.32;;;12.70;99.90;;;;;;5038627;28;20083;-85
2023/05/08 00:46:00;;;;;;;18.00;11.88;;;12.80;99.90;;;;;;5035436;28;20045;-84
2023/05/08 00:48:32;;;;;;;17.88;11.82;;;11.50;99.90;;;;;;5036255;28;20090;-85
2023/05/08 00:51:14;;;;;;;18.70;11.93;;;12.50;99.90;;;;;;5037070;28;20049;-85
2023/05/08 00:53:44;;;;;;;18.35;11.27;;;11.50;99.90;;;;;;5035740;28;20037;-85
2023/05/08 00:56:25;;;;;;;16.92;11.30;;;11.40;99.90;;;;;;5035716;28;20052;-85
2023/05/08 00:58:51;;;;;;;18.80;11.43;;;12.30;99.90;;;;;;5034921;28;20124;-84
2023/05/08 01:01:36;;;;;;;18.27;12.05;;;12.50;99.90;;;;;;5055598;28;20444;-84
2023/05/08 01:04:06;;;;;;;18.13;11.75;;;11.90;99.90;;;;;;5053305;28;20045;-84
2023/05/08 01:06:47;;;;;;;18.30;11.88;;;12.20;99.90;;;;;;5035410;28;20048;-84
2023/05/08 01:09:12;;;;;;;18.77;11.95;;;12.30;99.90;;;;;;5053427;28;20132;-84
2023/05/08 01:12:02;;;;;;;18.45;11.93;;;12.60;99.90;;;;;;5052896;28;20139;-85
2023/05/08 01:14:57;;;;;;;19.33;11.68;;;11.40;99.90;;;;;;5053241;28;20051;-85
2023/05/08 01:17:48;;;;;;;;;;;11.40;99.90;;;;;;5035519;28;20049;-84
2023/05/08 01:20:38;;;;;;;19.25;12.50;;;11.30;99.90;;;;;;5034809;28;20329;-84
2023/05/08 01:23:35;;;;;;;19.42;12.18;;;11.30;99.90;;;;;;5035906;28;20392;-84
2023/05/08 01:26:31;;;;;;;18.83;12.40;;;11.30;99.90;;;;;;5052830;28;20045;-84
2023/05/08 01:29:52;;;;;;;19.65;12.73;;;12.10;99.90;;;;;;5053379;28;20045;-84
2023/05/08 01:32:21;;;;;;;18.30;12.05;;;11.10;99.90;;;;;;5035353;28;20076;-85
2023/05/08 01:35:06;;;;;;;18.30;11.43;;;11.50;99.90;;;;;;5034740;28;20048;-85
2023/05/08 01:37:56;;;;;;;19.70;12.00;;;10.20;99.90;;;;;;5027637;23;20391;-84
2023/05/08 01:40:52;;;;;;;18.80;12.70;;;10.40;99.90;;;;;;5012282;28;20448;-85
2023/05/08 01:44:19;;;;;;;19.58;12.23;;;11.00;99.90;;;;;;5013022;28;20481;-84
2023/05/08 01:46:48;;;;;;;18.95;12.13;;;10.50;99.90;;;;;;4950885;28;20051;-85
2023/05/08 01:49:46;;;;;;;19.33;12.35;;;11.90;99.90;;;;;;4976763;28;20054;-84
2023/05/08 01:52:24;;;;;;;19.55;13.00;;;11.00;99.90;;;;;;4954497;28;20062;-85
2023/05/08 01:55:16;;;;;;;19.63;12.30;;;10.90;99.90;;;;;;4987572;28;20093;-85
2023/05/08 01:57:47;;;;;;;18.35;12.15;;;10.40;99.90;;;;;;5011837;28;20501;-85
2023/05/08 02:00:34;;;;;;;20.08;12.30;;;11.40;99.90;;;;;;5012777;28;20481;-84
2023/05/08 02:03:01;;;;;;;18.83;12.20;;;10.80;99.90;;;;;;5010859;28;20078;-85
2023/05/08 02:05:46;;;;;;;18.67;12.45;;;11.80;99.90;;;;;;5011249;28;20050;-84
2023/05/08 02:08:13;;;;;;;20.10;12.30;;;11.20;99.90;;;;;;5012433;28;20042;-85
2023/05/08 02:10:41;;;;;;;19.10;11.80;;;10.50;99.90;;;;;;5014457;28;20037;-85
2023/05/08 02:13:20;;;;;;;17.92;11.43;;;11.50;99.90;;;;;;5013414;28;20493;-85
2023/05/08 02:15:49;;;;;;;20.33;12.43;;;11.70;99.90;;;;;;5012687;28;20048;-85
2023/05/08 02:18:37;;;;;;;17.83;11.43;;;11.50;99.90;;;;;;5014342;28;20049;-85
2023/05/08 02:21:05;;;;;;;19.35;12.82;;;10.50;99.90;;;;;;4958104;28;20055;-84
2023/05/08 02:23:46;;;;;;;19.95;11.82;;;10.60;99.90;;;;;;5012308;28;20026;-85
2023/05/08 02:26:14;;;;;;;19.35;12.10;;;11.70;99.90;;;;;;5011032;28;20501;-85
2023/05/08 02:28:41;;;;;;;18.45;11.55;;;10.80;99.90;;;;;;5013038;28;20124;-85
2023/05/08 02:34:56;;;;;;;18.60;11.75;;;10.40;99.90;;;;;;5012976;28;20095;-84
2023/05/08 02:37:25;;;;;;;21.15;11.95;;;11.50;99.90;;;;;;5016019;28;20053;-84
2023/05/08 02:40:11;;;;;;;19.58;11.90;;;11.10;99.90;;;;;;5032422;28;20135;-84
2023/05/08 02:42:37;;;;;;;20.80;12.40;;;10.00;99.90;;;;;;5015114;28;20136;-85
2023/05/08 02:45:04;;;;;;;20.10;12.52;;;11.20;99.90;;;;;;5031652;28;20041;-84
2023/05/08 02:47:47;;;;;;;18.83;11.60;;;10.00;99.90;;;;;;5015308;28;20045;-85
2023/05/08 02:50:36;;;;;;;20.73;12.30;;;11.40;99.90;;;;;;5017562;28;20153;-84
2023/05/08 02:53:25;;;;;;;18.83;12.07;;;10.40;99.90;;;;;;5017423;28;20089;-84
2023/05/08 02:56:16;;;;;;;19.38;11.27;;;10.10;99.90;;;;;;5036017;28;20088;-84
2023/05/08 02:58:48;;;;;;;21.20;12.15;;;9.60;99.90;;;;;;5017591;28;20046;-84
2023/05/08 03:02:08;;;;;;;19.38;12.48;;;10.10;99.90;;;;;;5035812;28;20041;-85
2023/05/08 03:04:39;;;;;;;18.70;11.82;;;9.60;99.90;;;;;;4938811;29;20078;-84
2023/05/08 03:07:20;;;;;;;21.52;12.15;;;9.60;99.90;;;;;;4955303;28;20156;-84
2023/05/08 03:10:09;;;;;;;21.33;12.70;;;9.80;99.90;;;;;;4939207;29;20058;-84
2023/05/08 03:12:56;;;;;;;20.00;12.52;;;9.50;99.90;;;;;;5000449;28;20056;-84
2023/05/08 03:15:53;;;;;;;20.42;12.23;;;9.50;99.90;;;;;;5017757;28;20064;-84
2023/05/08 03:18:23;;;;;;;20.48;12.07;;;9.40;99.90;;;;;;4938330;29;20451;-84
2023/05/08 03:21:08;;;;;;;20.30;11.65;;;9.40;99.90;;;;;;4939687;29;20047;-84
2023/05/08 03:23:37;;;;;;;20.83;12.25;;;9.40;99.90;;;;;;5033384;28;20140;-84
2023/05/08 03:26:04;;;;;;;20.73;11.80;;;9.30;99.90;;;;;;5016254;28;20068;-84
2023/05/08 03:28:31;;;;;;;19.92;11.95;;;9.60;99.90;;;;;;5017359;28;20045;-84
2023/05/08 03:31:13;;;;;;;19.80;12.13;;;9.40;99.90;;;;;;5035775;28;20045;-84
2023/05/08 03:33:41;;;;;;;18.77;11.30;;;10.10;99.90;;;;;;5017018;28;20488;-84
2023/05/08 03:36:21;;;;;;;19.70;12.13;;;9.00;99.90;;;;;;5017005;28;20119;-84
2023/05/08 03:38:47;;;;;;;21.98;12.43;;;10.10;99.90;;;;;;5016599;28;20081;-84
2023/05/08 03:41:13;;;;;;;21.27;12.45;;;9.60;99.90;;;;;;5014646;28;20452;-84
2023/05/08 03:43:55;;;;;;;18.65;11.60;;;10.40;99.90;;;;;;5014463;28;20037;-84
2023/05/08 03:46:22;;;;;;;20.50;11.70;;;10.30;99.90;;;;;;5016021;28;20042;-84
2023/05/08 03:48:49;;;;;;;18.67;11.52;;;9.50;99.90;;;;;;5015496;28;20449;-85
2023/05/08 03:51:33;;;;;;;19.77;12.45;;;10.20;99.90;;;;;;5015356;28;20045;-84
2023/05/08 03:53:58;;;;;;;20.15;12.68;;;10.80;99.90;;;;;;5013639;28;20057;-85
2023/05/08 03:56:24;;;;;;;20.40;12.18;;;9.70;99.90;;;;;;5015137;28;20061;-85
2023/05/08 03:59:13;;;;;;;22.80;12.95;;;10.50;99.90;;;;;;5014991;28;20508;-84
2023/05/08 04:02:11;;;;;;;19.55;11.95;;;9.50;99.90;;;;;;5017283;28;20512;-84
2023/05/08 04:04:41;;;;;;;18.42;11.57;;;9.50;99.90;;;;;;5015130;28;20117;-84
2023/05/08 04:07:23;;;;;;;21.45;12.00;;;10.00;99.90;;;;;;5013057;28;20137;-85
2023/05/08 04:10:10;;;;;;;20.10;11.88;;;10.00;99.90;;;;;;5055503;23;20057;-84
2023/05/08 04:12:44;;;;;;;18.48;11.45;;;9.60;99.90;;;;;;5036792;28;20091;-84
2023/05/08 04:15:29;;;;;;;18.40;11.18;;;9.60;99.90;;;;;;5054068;28;20045;-85
2023/05/08 04:17:59;;;;;;;18.50;11.77;;;9.70;99.90;;;;;;5054723;28;20056;-85
2023/05/08 04:20:44;;;;;;;19.20;11.60;;;10.10;99.90;;;;;;5036653;28;20199;-84
2023/05/08 04:23:14;;;;;;;18.30;11.27;;;10.70;99.90;;;;;;5053818;28;20041;-85
2023/05/08 04:25:59;;;;;;;19.17;11.30;;;10.10;99.90;;;;;;5054526;28;20041;-84
2023/05/08 04:28:25;;;;;;;19.33;11.60;;;10.30;99.90;;;;;;5035388;28;20049;-85
2023/05/08 04:31:04;;;;;;;18.67;10.93;;;9.80;99.90;;;;;;5036339;28;20060;-85
2023/05/08 04:33:32;;;;;;;18.85;12.13;;;9.80;99.90;;;;;;5036384;28;20056;-85
2023/05/08 04:36:01;;;;;;;18.17;10.98;;;9.80;99.90;;;;;;5035881;28;20500;-85
2023/05/08 04:38:45;;;;;;;17.98;10.95;;;9.80;99.90;;;;;;5036209;28;20052;-84
2023/05/08 04:41:29;;;;;;;17.45;10.63;;;11.00;99.90;;;;;;5054221;28;20621;-85
2023/05/08 04:47:35;;;;;;;17.63;10.75;;;9.70;99.90;;;;;;5078027;28;20128;-84
2023/05/08 04:50:01;;;;;;;19.05;11.35;;;11.00;99.90;;;;;;5037087;28;20508;-84
2023/05/08 04:52:43;;;;;;;17.40;10.95;;;10.00;99.90;;;;;;5019411;28;20049;-85
2023/05/08 04:55:09;;;;;;;19.45;11.68;;;9.80;99.90;;;;;;5054308;28;20040;-85
2023/05/08 04:57:35;;;;;;;17.27;11.18;;;10.30;99.90;;;;;;5035422;28;20127;-85
2023/05/08 05:00:19;;;;;;;17.75;10.52;;;10.90;99.90;;;;;;5054180;28;20052;-85
2023/05/08 05:02:45;;;;;;;18.38;10.90;;;11.10;99.90;;;;;;5054339;28;20045;-86
2023/05/08 05:05:11;;;;;;;17.63;10.90;;;10.10;99.90;;;;;;5053501;28;20079;-84
2023/05/08 05:07:57;;;;;;;16.30;10.60;;;10.80;99.90;;;;;;5037486;28;20041;-84
2023/05/08 05:10:23;;;;;;;16.83;11.00;;;10.00;99.90;;;;;;5032898;28;20548;-85
2023/05/08 05:12:48;;;;;;;16.98;10.77;;;10.50;99.90;;;;;;5032390;28;20132;-85
2023/05/08 05:15:29;;;;;;;17.02;10.45;;;10.90;99.90;;;;;;5043006;28;20140;-84
2023/05/08 05:17:55;;;;;;;17.73;10.82;;;10.00;99.90;;;;;;5032839;28;20049;-85
2023/05/08 05:20:21;;;;;;;17.48;10.77;;;10.50;99.90;;;;;;5033074;28;20107;-85
2023/05/08 05:22:46;;;;;;;16.30;10.45;;;10.10;99.90;;;;;;5033610;28;20167;-85
2023/05/08 05:25:23;;;;;;;16.92;10.75;;;10.30;99.90;;;;;;5031313;28;20136;-85
2023/05/08 05:27:49;;;;;;;16.10;10.07;;;10.00;99.90;;;;;;5032162;28;20106;-85
2023/05/08 05:30:15;;;;;;;15.75;9.93;;;10.40;99.90;;;;;;5036968;28;20092;-85
2023/05/08 05:32:41;;;;;;;17.27;10.63;;;10.10;99.90;;;;;;5033829;28;20080;-85
2023/05/08 05:35:10;;;;;;;17.52;10.90;;;10.50;99.90;;;;;;5032753;28;20041;-85
2023/05/08 05:37:36;;;;;;;16.50;10.50;;;10.40;99.90;;;;;;5031902;28;20547;-85
2023/05/08 05:40:02;;;;;;;16.50;10.65;;;11.10;99.90;;;;;;5032534;28;20149;-85
2023/05/08 05:42:40;;;;;;;16.20;10.48;;;10.10;99.90;;;;;;5031907;28;20393;-85
2023/05/08 05:45:06;;;;;;;15.98;9.90;;;10.10;99.90;;;;;;5038995;22;20049;-85
2023/05/08 05:47:32;;;;;;;16.73;10.50;;;10.20;99.90;;;;;;5031438;28;20076;-86
2023/05/08 05:50:17;;;;;;;16.40;10.57;;;11.00;99.90;;;;;;5024970;28;20426;-87
2023/05/08 05:53:00;;;;;;;17.00;10.63;;;9.70;99.90;;;;;;5011739;28;20497;-81
2023/05/08 05:55:54;;;;;;;15.98;10.35;;;11.60;99.90;;;;;;5012929;28;20132;-81
2023/05/08 05:58:20;;;;;;;16.80;10.82;;;10.50;99.90;;;;;;5012647;28;20490;-82
2023/05/08 06:01:15;;;;;;;17.50;11.18;;;10.80;99.90;;;;;;5011198;28;20069;-86
2023/05/08 06:03:41;;;;;;;16.52;10.88;;;10.70;99.90;;;;;;5013411;28;20487;-83
2023/05/08 06:06:17;;;;;;;18.60;10.80;;;11.50;99.90;;;;;;5012904;28;20038;-81
2023/05/08 06:08:43;;;;;;;18.45;11.48;;;11.80;99.90;;;;;;5012333;28;20049;-82
2023/05/08 06:11:08;;;;;;;17.02;10.82;;;12.10;99.90;;;;;;5011055;28;20049;-82
2023/05/08 06:13:40;;;;;;;16.73;10.38;;;11.80;99.90;;;;;;5011385;28;20115;-82
2023/05/08 06:16:15;;;;;;;16.77;10.23;;;12.10;99.90;;;;;;5010991;28;20492;-82
2023/05/08 06:18:58;;;;;;;15.68;10.10;;;12.30;99.90;;;;;;5012703;28;20038;-83
2023/05/08 06:21:24;;;;;;;17.35;10.35;;;12.10;99.90;;;;;;5016282;28;20038;-81
2023/05/08 06:24:05;;;;;;;17.05;10.07;;;12.00;99.90;;;;;;5025625;28;20128;-81
2023/05/08 06:26:31;;;;;;;16.42;10.25;;;11.20;99.90;;;;;;5018368;28;20046;-81
2023/05/08 06:28:57;;;;;;;17.88;10.77;;;12.50;99.90;;;;;;5016144;28;20128;-81
2023/05/08 06:31:25;;;;;;;16.50;9.80;;;12.80;99.90;;;;;;5016109;28;20168;-81
2023/05/08 06:34:06;;;;;;;16.98;10.68;;;12.90;99.90;;;;;;5016621;28;20096;-81
2023/05/08 06:36:32;;;;;;;16.38;10.00;;;11.90;99.90;;;;;;5015519;28;20501;-81
2023/05/08 06:38:58;;;;;;;16.48;10.07;;;12.40;99.90;;;;;;5016416;28;20069;-80
2023/05/08 06:41:24;;;;;;;16.70;9.82;;;12.80;99.90;;;;;;5016197;28;20049;-82
2023/05/08 06:43:49;;;;;;;15.35;9.32;;;12.30;99.90;;;;;;5015901;28;20084;-82
2023/05/08 06:46:15;;;;;;;15.77;9.65;;;13.00;99.90;;;;;;5014805;28;20100;-82
2023/05/08 06:48:40;;;;;;;16.95;10.23;;;12.70;99.90;;;;;;5015495;28;20042;-82
2023/05/08 06:51:06;;;;;;;17.48;10.05;;;12.10;99.90;;;;;;5015307;28;20081;-82
2023/05/08 07:01:18;;;;;;;14.77;9.88;;;12.20;99.90;;;;;;5055646;28;20099;-82
2023/05/08 07:04:04;;;;;;;16.08;9.93;;;13.10;99.90;;;;;;5036790;28;20036;-81
2023/05/08 07:06:41;;;;;;;14.73;9.95;;;13.60;99.90;;;;;;5036970;28;20124;-82
2023/05/08 07:09:08;;;;;;;15.77;10.07;;;13.70;99.90;;;;;;5033956;28;20040;-82
2023/05/08 07:11:55;;;;;;;15.13;9.98;;;13.60;99.90;;;;;;5027015;22;20462;-82
2023/05/08 07:14:21;;;;;;;14.43;9.35;;;13.70;99.90;;;;;;5049820;28;20052;-82
2023/05/08 07:17:05;;;;;;;15.63;10.25;;;14.10;99.90;;;;;;5037236;28;20539;-82
2023/05/08 07:19:45;;;;;;;16.80;9.95;;;13.20;99.90;;;;;;5054838;28;20045;-82
2023/05/08 07:22:23;;;;;;;14.95;9.93;;;13.10;99.90;;;;;;5054788;28;20053;-82
2023/05/08 07:24:48;;;;;;;15.27;10.15;;;14.00;99.90;;;;;;5053788;28;20250;-83
2023/05/08 07:27:32;;;;;;;13.63;9.15;;;14.50;99.90;;;;;;5036936;28;20155;-82
2023/05/08 07:30:10;;;;;;;14.32;9.80;;;13.20;99.90;;;;;;5055022;28;20044;-82
2023/05/08 07:32:56;;;;;;;14.77;9.65;;;13.60;99.90;;;;;;5053715;28;20037;-82
2023/05/08 07:35:22;;;;;;;15.40;10.27;;;13.70;99.90;;;;;;5054126;28;20060;-82
2023/05/08 07:38:03;;;;;;;15.57;10.10;;;13.90;99.90;;;;;;5054787;28;20041;-82
2023/05/08 07:40:44;;;;;;;14.48;10.00;;;15.20;99.90;;;;;;5034336;28;20041;-82
2023/05/08 07:43:10;;;;;;;15.30;10.23;;;14.90;99.90;;;;;;5041885;28;20082;-82
2023/05/08 07:45:50;;;;;;;15.25;10.32;;;14.60;99.90;;;;;;5043366;28;20106;-82
2023/05/08 07:48:16;;;;;;;14.15;9.45;;;14.40;99.90;;;;;;5062315;28;20539;-83
2023/05/08 07:50:58;;;;;;;13.68;9.57;;;14.50;99.90;;;;;;5035136;28;20045;-82
2023/05/08 07:53:39;;;;;;;16.27;10.80;;;14.50;99.90;;;;;;5042963;28;20045;-82
2023/05/08 07:56:14;;;;;;;14.60;10.18;;;14.70;99.90;;;;;;5028530;28;20040;-84
2023/05/08 07:58:57;;;;;;;16.02;10.60;;;14.80;99.90;;;;;;5016520;28;20049;-83
2023/05/08 08:01:46;;;;;;;14.27;9.95;;;15.60;99.90;;;;;;5015920;28;20388;-83
2023/05/08 08:04:12;;;;;;;17.00;10.13;;;14.90;99.90;;;;;;5017641;28;20128;-82
2023/05/08 08:06:38;;;;;;;15.32;10.70;;;15.30;99.90;;;;;;5009934;28;20038;-83
2023/05/08 08:09:04;;;;;;;15.25;10.48;;;15.20;99.90;;;;;;5014576;28;20052;-82
2023/05/08 08:12:22;;;;;;;15.65;11.07;;;15.20;99.90;;;;;;5034483;28;20104;-82
2023/05/08 08:15:57;;;;;;;15.80;10.88;;;15.40;99.90;;;;;;5012729;28;21354;-83
2023/05/08 08:18:47;;;;;;;15.85;10.32;;;15.50;99.90;;;;;;5019943;28;20160;-84
2023/05/08 08:21:19;;;;;;;16.27;10.30;;;15.30;99.90;;;;;;5017498;28;20139;-84
2023/05/08 08:23:46;;;;;;;17.67;10.60;;;16.10;99.90;;;;;;5032268;28;20125;-84
2023/05/08 08:26:21;;;;;;;15.35;11.20;;;16.10;99.90;;;;;;5016297;28;20179;-81
2023/05/08 08:29:05;;;;;;;16.45;10.68;;;16.10;99.90;;;;;;5014163;28;20047;-84
2023/05/08 08:31:31;;;;;;;13.75;10.35;;;16.20;99.90;;;;;;5016542;28;20052;-84
2023/05/08 08:34:03;;;;;;;14.85;10.77;;;17.30;99.90;;;;;;5016361;28;20045;-82
2023/05/08 08:36:28;;;;;;;14.43;10.50;;;16.40;99.90;;;;;;5033319;28;20049;-83
2023/05/08 08:39:14;;;;;;;14.02;9.93;;;16.60;99.90;;;;;;5027367;28;20040;-84
2023/05/08 08:41:46;;;;;;;15.30;10.05;;;16.70;99.90;;;;;;5026307;28;20400;-82
2023/05/08 08:44:32;;;;;;;14.32;10.00;;;16.60;99.90;;;;;;5041860;28;20083;-84
2023/05/08 08:46:59;;;;;;;15.32;10.73;;;17.00;99.90;;;;;;5022359;28;20045;-84
2023/05/08 08:49:47;;;;;;;14.52;9.90;;;17.20;99.90;;;;;;5039914;28;20501;-82
2023/05/08 08:52:56;;;;;;;15.88;10.60;;;17.20;99.90;;;;;;5024472;28;20131;-84
2023/05/08 08:58:51;;;;;;;14.20;10.48;;;17.80;99.90;;;;;;5041489;28;20049;-83
2023/05/08 09:01:40;;;;;;;14.38;9.90;;;18.00;99.90;;;;;;5035062;28;20102;-84
2023/05/08 09:04:06;;;;;;;14.25;10.23;;;17.90;99.90;;;;;;5011189;28;20520;-84
2023/05/08 09:06:36;;;;;;;14.45;10.38;;;17.70;99.90;;;;;;4995792;28;20038;-83
2023/05/08 09:09:05;;;;;;;13.45;9.70;;;18.20;99.90;;;;;;4995403;28;20049;-81
2023/05/08 09:11:46;;;;;;;14.10;10.45;;;18.30;99.90;;;;;;5012281;28;20054;-82
2023/05/08 09:18:07;;;;;;;15.75;10.18;;;18.20;99.90;;;;;;5012290;28;20104;-81
2023/05/08 09:23:25;;;;;;;14.55;10.25;;;18.20;99.90;;;;;;5030461;28;20520;-81
2023/05/08 09:26:09;;;;;;;14.90;10.32;;;18.20;99.90;;;;;;5014506;28;20389;-81
2023/05/08 09:28:44;;;;;;;14.77;10.70;;;18.50;99.90;;;;;;5014791;28;20084;-82
2023/05/08 09:31:35;;;;;;;14.77;10.35;;;18.30;99.90;;;;;;5031474;28;20872;-83
2023/05/08 09:34:25;;;;;;;15.05;10.55;;;18.30;99.90;;;;;;4999373;28;20041;-82
2023/05/08 09:37:22;;;;;;;13.38;9.55;;;18.30;99.90;;;;;;5012408;28;20046;-82
2023/05/08 09:40:12;;;;;;;15.35;10.60;;;18.60;99.90;;;;;;5012818;28;20037;-82
2023/05/08 09:43:43;;;;;;;16.52;10.80;;;18.70;99.90;;;;;;5013234;28;20105;-82
2023/05/08 09:46:36;;;;;;;18.00;11.45;;;18.60;99.90;;;;;;5032396;28;20053;-83
2023/05/08 09:49:17;;;;;;;16.25;10.63;;;19.20;99.90;;;;;;5014525;28;20401;-84
2023/05/08 09:52:04;;;;;;;16.13;10.32;;;19.20;99.90;;;;;;5015095;28;20049;-83
2023/05/08 09:54:36;;;;;;;15.10;9.90;;;19.20;99.90;;;;;;5014392;28;20036;-83
2023/05/08 09:57:25;;;;;;;13.60;9.82;;;20.20;99.90;;;;;;5032507;28;20042;-84
2023/05/08 10:00:09;;;;;;;15.63;10.77;;;19.60;99.90;;;;;;5032464;28;20040;-84
2023/05/08 10:03:23;;;;;;;15.05;10.70;;;19.80;99.90;;;;;;5029252;28;20056;-83
2023/05/08 10:06:11;;;;;;;14.50;10.68;;;19.90;99.90;;;;;;4952128;29;20051;-84
2023/05/08 10:08:37;;;;;;;15.27;11.02;;;20.10;99.90;;;;;;5033185;28;20133;-80
2023/05/08 10:13:32;;;;;;;15.40;11.13;;;20.20;99.90;;;;;;4988581;28;20446;-84
2023/05/08 10:16:27;;;;;;;15.10;11.02;;;20.40;99.90;;;;;;4976339;28;20046;-88
2023/05/08 10:19:13;;;;;;;15.15;11.00;;;20.30;99.90;;;;;;4976745;28;20054;-83
2023/05/08 10:21:52;;;;;;;16.20;11.18;;;20.60;99.90;;;;;;4975698;28;20046;-87
2023/05/08 10:24:33;;;;;;;15.57;9.98;;;20.80;99.90;;;;;;4976325;28;20053;-86
2023/05/08 10:27:26;;;;;;;14.02;10.50;;;20.90;99.90;;;;;;4975284;28;20042;-85
2023/05/08 10:30:11;;;;;;;15.50;11.15;;;21.30;99.90;;;;;;4994029;28;20054;-87
2023/05/08 10:32:41;;;;;;;15.02;10.93;;;21.60;99.90;;;;;;4993266;28;20057;-85
2023/05/08 10:35:26;;;;;;;16.70;10.93;;;21.90;99.90;;;;;;4974865;28;20042;-83
2023/05/08 10:38:10;;;;;;;16.33;11.10;;;22.00;99.90;;;;;;4993390;28;20050;-82
2023/05/08 10:40:37;;;;;;;18.33;11.48;;;22.10;99.90;;;;;;4975172;28;20046;-82
2023/05/08 10:43:23;;;;;;;15.05;11.75;;;22.20;99.90;;;;;;4975129;28;20056;-82
2023/05/08 10:46:12;;;;;;;16.05;11.00;;;22.40;99.90;;;;;;4975705;28;20343;-82
2023/05/08 10:48:49;;;;;;;15.98;12.07;;;22.60;99.90;;;;;;4974821;28;20129;-82
2023/05/08 10:51:39;;;;;;;15.13;11.75;;;22.90;99.90;;;;;;4993165;28;20430;-82
2023/05/08 10:54:11;;;;;;;13.60;10.50;;;22.90;99.90;;;;;;4999727;28;20080;-82
2023/05/08 10:56:38;;;;;;;16.95;12.13;;;23.10;99.90;;;;;;4982355;28;20042;-85
2023/05/08 10:59:15;;;;;;;18.05;12.95;;;23.10;99.90;;;;;;4980877;28;20046;-82
2023/05/08 11:02:07;;;;;;;15.65;12.35;;;22.80;99.90;;;;;;4975410;28;20085;-84
2023/05/08 11:04:39;;;;;;;15.27;12.35;;;22.90;99.90;;;;;;4971107;28;20062;-85
2023/05/08 11:07:05;;;;;;;20.27;12.70;;;22.80;99.90;;;;;;4996481;28;20125;-84
2023/05/08 11:09:42;;;;;;;16.70;12.02;;;22.70;99.90;;;;;;4978659;28;20129;-82
2023/05/08 11:12:30;;;;;;;15.70;12.50;;;22.60;99.90;;;;;;5006804;28;20046;-81
2023/05/08 11:16:02;;;;;;;16.15;11.98;;;22.40;99.90;;;;;;4980796;28;20054;-86
2023/05/08 11:18:29;;;;;;;16.30;12.77;;;22.00;99.90;;;;;;4994951;28;20046;-83
2023/05/08 11:21:31;;;;;;;16.88;12.60;;;22.20;99.90;;;;;;4977903;28;20046;-84
2023/05/08 11:27:05;;;;;;;17.27;10.98;;;22.90;99.90;;;;;;4977674;28;20101;-84
2023/05/08 11:29:37;;;;;;;16.48;12.00;;;23.00;99.90;;;;;;4975305;28;20045;-84
2023/05/08 11:32:06;;;;;;;15.27;11.18;;;23.20;99.90;;;;;;4994593;28;20173;-84
2023/05/08 11:35:12;;;;;;;16.80;11.38;;;23.10;99.90;;;;;;4995483;28;20070;-84
2023/05/08 11:38:43;;;;;;;17.33;12.40;;;23.30;99.90;;;;;;4993298;28;20044;-83
2023/05/08 11:41:38;;;;;;;15.80;12.70;;;23.50;99.90;;;;;;4992374;28;20049;-84
2023/05/08 11:44:04;;;;;;;16.10;12.23;;;23.70;99.90;;;;;;5017281;22;20033;-84
2023/05/08 11:47:05;;;;;;;15.88;12.55;;;24.10;99.90;;;;;;5030970;28;20160;-84
2023/05/08 11:49:35;;;;;;;14.35;10.80;;;24.40;99.90;;;;;;4962186;28;20051;-84
2023/05/08 11:52:06;;;;;;;16.25;12.30;;;24.80;99.90;;;;;;5033052;28;20049;-84
2023/05/08 11:54:38;;;;;;;15.23;10.85;;;25.20;99.90;;;;;;5028805;28;20034;-85
2023/05/08 11:57:07;;;;;;;14.20;10.73;;;25.20;99.90;;;;;;5041378;28;20113;-85
2023/05/08 11:59:36;;;;;;;15.10;10.85;;;25.40;99.90;;;;;;5023757;28;20045;-82
2023/05/08 12:02:06;;;;;;;13.50;10.07;;;25.30;99.90;;;;;;5024555;28;20034;-82
2023/05/08 12:05:05;;;;;;;15.40;11.55;;;25.40;99.90;;;;;;5024606;28;20038;-82
2023/05/08 12:07:46;;;;;;;15.77;10.95;;;24.90;99.90;;;;;;5013993;28;20053;-82
2023/05/08 12:10:15;;;;;;;16.45;12.43;;;24.60;99.90;;;;;;5033007;28;20132;-81
2023/05/08 12:12:42;;;;;;;17.15;11.60;;;24.30;99.90;;;;;;5015512;28;20512;-84
2023/05/08 12:15:23;;;;;;;16.73;11.98;;;24.00;99.90;;;;;;5015335;28;20042;-83
2023/05/08 12:18:02;;;;;;;16.98;12.65;;;23.60;99.90;;;;;;4997076;28;20048;-83
2023/05/08 12:20:28;;;;;;;17.77;12.75;;;23.30;99.90;;;;;;5011501;28;20452;-84
2023/05/08 12:22:54;;;;;;;15.88;11.65;;;23.00;99.90;;;;;;4996926;28;20049;-83
2023/05/08 12:25:19;;;;;;;15.15;11.60;;;23.00;99.90;;;;;;5013843;28;20508;-83
2023/05/08 12:27:45;;;;;;;15.52;10.93;;;23.40;99.90;;;;;;4995707;28;20042;-83
2023/05/08 12:30:12;;;;;;;16.10;10.82;;;23.80;99.90;;;;;;4996541;28;20051;-83
2023/05/08 12:32:42;;;;;;;14.75;10.90;;;24.40;99.90;;;;;;4997585;28;20049;-84
2023/05/08 12:35:27;;;;;;;16.45;10.93;;;24.80;99.90;;;;;;5028336;28;20041;-83
2023/05/08 12:37:52;;;;;;;16.40;12.18;;;24.80;99.90;;;;;;4997074;28;20050;-84
2023/05/08 12:40:47;;;;;;;16.60;12.45;;;25.00;99.90;;;;;;5016568;28;20042;-83
2023/05/08 12:43:15;;;;;;;17.85;13.57;;;25.00;99.90;;;;;;5014660;28;20494;-84
2023/05/08 12:45:41;;;;;;;19.05;13.25;;;25.00;99.90;;;;;;4996659;28;20516;-84
2023/05/08 12:48:09;;;;;;;17.48;12.82;;;24.70;99.90;;;;;;5013292;28;20037;-84
2023/05/08 12:50:40;;;;;;;17.50;13.68;;;24.60;99.90;;;;;;4995987;28;20378;-84
2023/05/08 12:53:17;;;;;;;16.92;12.75;;;24.40;99.90;;;;;;4995747;28;20049;-84
2023/05/08 12:55:54;;;;;;;17.08;13.00;;;24.30;99.90;;;;;;4995627;28;20092;-83
2023/05/08 12:58:24;;;;;;;16.67;11.25;;;24.10;99.90;;;;;;5013842;28;20045;-84
2023/05/08 13:00:51;;;;;;;18.85;12.85;;;23.90;99.90;;;;;;5013751;28;20049;-84
2023/05/08 13:03:25;;;;;;;18.20;12.45;;;23.70;99.90;;;;;;4995508;28;20149;-83
2023/05/08 13:05:53;;;;;;;16.10;11.52;;;23.50;99.90;;;;;;4996770;28;20053;-83
2023/05/08 13:08:36;;;;;;;15.55;11.73;;;23.40;99.90;;;;;;4996789;28;20088;-83
2023/05/08 13:11:26;;;;;;;15.88;11.63;;;23.40;99.90;;;;;;5013787;28;20042;-84
2023/05/08 13:13:52;;;;;;;17.60;11.63;;;23.40;99.90;;;;;;4996099;28;20045;-84
2023/05/08 13:16:17;;;;;;;15.90;11.50;;;23.30;99.90;;;;;;5012682;28;20547;-84
2023/05/08 13:18:43;;;;;;;17.10;12.45;;;23.20;99.90;;;;;;5031129;23;20057;-84
2023/05/08 13:21:09;;;;;;;17.05;12.85;;;23.20;99.90;;;;;;5034796;28;20060;-84
2023/05/08 13:23:34;;;;;;;15.70;11.95;;;23.20;99.90;;;;;;5034496;28;20330;-84
2023/05/08 13:26:00;;;;;;;19.15;13.95;;;23.30;99.90;;;;;;5049546;28;20113;-84
2023/05/08 13:28:25;;;;;;;18.30;13.65;;;23.20;99.90;;;;;;5015357;28;20049;-84
2023/05/08 13:30:51;;;;;;;20.35;13.60;;;23.30;99.90;;;;;;5014021;28;20041;-84
2023/05/08 13:33:17;;;;;;;19.05;14.02;;;23.40;99.90;;;;;;5014871;28;20037;-84
2023/05/08 13:35:43;;;;;;;17.27;13.13;;;23.50;99.90;;;;;;5014622;28;20037;-84
2023/05/08 13:38:08;;;;;;;19.23;14.45;;;23.50;99.90;;;;;;5013646;28;20121;-83
2023/05/08 13:40:34;;;;;;;19.25;14.80;;;23.50;99.90;;;;;;5015202;28;20046;-84
2023/05/08 13:42:59;;;;;;;19.73;13.43;;;23.60;99.90;;;;;;5015541;28;20046;-84
2023/05/08 13:45:25;;;;;;;18.00;13.38;;;23.70;99.90;;;;;;5014596;28;20164;-84
2023/05/08 13:47:51;;;;;;;20.35;13.93;;;23.60;99.90;;;;;;5039628;23;20049;-83